Time;durP1;ratioP1;P1;durP2;ratioP2;P2;SDS_P1;SDS_P2;PMS_P1;PMS_P2;Temp;Humidity;BMP_temperature;BMP_pressure;BME280_temperature;BME280_humidity;BME280_pressure;Samples;Min_cycle;Max_cycle;Signal;HPM_P1;HPM_P2
2023/12/10 00:01:06;;;;;;;18.05;3.33;;;9.30;99.90;;;;;;5066063;28;20244;-80
2023/12/10 00:03:33;;;;;;;0.50;0.50;;;9.30;99.90;;;;;;5066344;28;20210;-82
2023/12/10 00:06:00;;;;;;;5.60;2.22;;;9.30;99.90;;;;;;5063682;28;20521;-80
2023/12/10 00:08:28;;;;;;;15.80;1.17;;;9.30;99.90;;;;;;5063851;28;20223;-81
2023/12/10 00:10:55;;;;;;;3.47;2.63;;;9.30;99.90;;;;;;5065629;28;20473;-80
2023/12/10 00:13:21;;;;;;;3.13;1.92;;;9.30;99.90;;;;;;5066623;28;20250;-80
2023/12/10 00:15:50;;;;;;;1.47;1.23;;;9.30;99.90;;;;;;5065633;28;20280;-80
2023/12/10 00:18:17;;;;;;;1.00;0.60;;;9.40;99.90;;;;;;5062725;28;20442;-79
2023/12/10 00:20:45;;;;;;;0.50;0.40;;;9.30;99.90;;;;;;5063416;28;20473;-80
2023/12/10 00:23:12;;;;;;;2.47;1.63;;;9.30;99.90;;;;;;5066356;28;21014;-80
2023/12/10 00:25:40;;;;;;;6.95;1.20;;;9.20;99.90;;;;;;5066902;28;20515;-80
2023/12/10 00:28:07;;;;;;;6.83;1.60;;;9.20;99.90;;;;;;5067211;28;20245;-80
2023/12/10 00:30:34;;;;;;;7.32;0.93;;;9.30;99.90;;;;;;5067492;28;20444;-80
2023/12/10 00:33:01;;;;;;;4.60;2.38;;;9.30;99.90;;;;;;5064130;28;20282;-80
2023/12/10 00:35:28;;;;;;;1.05;0.70;;;9.30;99.90;;;;;;5064230;28;20188;-79
2023/12/10 00:37:55;;;;;;;0.70;0.60;;;9.30;99.90;;;;;;5072062;28;20281;-79
2023/12/10 00:40:22;;;;;;;2.10;1.50;;;9.30;99.90;;;;;;5062760;28;20222;-79
2023/12/10 00:42:51;;;;;;;7.85;2.13;;;9.40;99.90;;;;;;5064132;28;20229;-79
2023/12/10 00:45:18;;;;;;;1.73;0.93;;;9.40;99.90;;;;;;5067967;28;20221;-79
2023/12/10 00:47:44;;;;;;;3.20;1.00;;;9.40;99.90;;;;;;5066558;28;20469;-79
2023/12/10 00:50:11;;;;;;;4.72;1.85;;;9.40;99.90;;;;;;5063266;28;20497;-80
2023/12/10 00:52:38;;;;;;;0.95;0.80;;;9.40;99.90;;;;;;5063313;28;20294;-79
2023/12/10 00:55:05;;;;;;;1.50;1.42;;;9.40;99.90;;;;;;5066920;28;20256;-80
2023/12/10 00:57:32;;;;;;;3.35;1.10;;;9.40;99.90;;;;;;5066854;28;20231;-79
2023/12/10 01:00:00;;;;;;;6.50;2.47;;;9.40;99.90;;;;;;5064023;28;20237;-81
2023/12/10 01:02:27;;;;;;;28.38;4.38;;;9.50;99.90;;;;;;5062556;28;20485;-79
2023/12/10 01:04:54;;;;;;;8.18;2.45;;;9.40;99.90;;;;;;5063705;28;20302;-79
2023/12/10 01:07:21;;;;;;;0.50;0.40;;;9.50;99.90;;;;;;5065724;28;20190;-79
2023/12/10 01:09:48;;;;;;;4.67;1.63;;;9.40;99.90;;;;;;5064737;28;20289;-79
2023/12/10 01:12:16;;;;;;;13.33;2.93;;;9.40;99.90;;;;;;5062210;28;20433;-81
2023/12/10 01:14:44;;;;;;;2.90;2.70;;;9.50;99.90;;;;;;5061889;28;20813;-79
2023/12/10 01:17:13;;;;;;;3.70;3.43;;;9.40;99.90;;;;;;5061843;28;20445;-79
2023/12/10 01:19:40;;;;;;;18.70;2.55;;;9.50;99.90;;;;;;5061957;28;20433;-79
2023/12/10 01:22:06;;;;;;;2.60;1.30;;;9.40;99.90;;;;;;5069929;28;20246;-79
2023/12/10 01:24:33;;;;;;;2.60;1.75;;;9.40;99.90;;;;;;5061993;28;20298;-79
2023/12/10 01:27:00;;;;;;;10.10;2.90;;;9.40;99.90;;;;;;5063891;28;20234;-79
2023/12/10 01:29:27;;;;;;;54.93;3.80;;;9.50;99.90;;;;;;5065533;28;20849;-79
2023/12/10 01:31:54;;;;;;;0.60;0.60;;;9.40;99.90;;;;;;5064063;28;20979;-79
2023/12/10 01:34:22;;;;;;;2.70;1.40;;;9.50;99.90;;;;;;5061870;28;20488;-79
2023/12/10 01:36:50;;;;;;;12.50;3.45;;;9.50;99.90;;;;;;5062494;28;20531;-79
2023/12/10 01:39:17;;;;;;;0.50;0.40;;;9.40;99.90;;;;;;5065767;28;20199;-79
2023/12/10 01:41:44;;;;;;;0.93;0.83;;;9.40;99.90;;;;;;5065417;28;20244;-79
2023/12/10 01:44:12;;;;;;;3.63;2.25;;;9.40;99.90;;;;;;5062159;28;20484;-78
2023/12/10 01:46:39;;;;;;;3.90;1.27;;;9.30;99.90;;;;;;5062298;28;20183;-79
2023/12/10 01:49:07;;;;;;;0.87;0.87;;;9.30;99.90;;;;;;5064826;28;20532;-80
2023/12/10 01:51:37;;;;;;;4.88;2.03;;;9.30;99.90;;;;;;5065703;28;20440;-81
2023/12/10 01:54:04;;;;;;;4.00;1.27;;;9.40;99.90;;;;;;5066555;28;20309;-80
2023/12/10 01:56:32;;;;;;;0.90;0.50;;;9.40;99.90;;;;;;5066337;28;20298;-80
2023/12/10 01:58:59;;;;;;;1.13;1.00;;;9.40;99.90;;;;;;5067394;28;20616;-80
2023/12/10 02:01:26;;;;;;;1.70;0.93;;;9.30;99.90;;;;;;5069409;28;20436;-79
2023/12/10 02:03:54;;;;;;;3.67;1.10;;;9.30;99.90;;;;;;5069459;28;20701;-79
2023/12/10 02:06:22;;;;;;;3.63;1.53;;;9.20;99.90;;;;;;5066160;28;21074;-79
2023/12/10 02:08:50;;;;;;;2.30;1.95;;;9.20;99.90;;;;;;5065876;28;21130;-78
2023/12/10 02:11:17;;;;;;;0.95;0.50;;;9.20;99.90;;;;;;5061809;28;20218;-80
2023/12/10 02:13:45;;;;;;;10.50;2.53;;;9.10;99.90;;;;;;5069071;28;20253;-80
2023/12/10 02:16:13;;;;;;;1.97;0.70;;;9.10;99.90;;;;;;5066536;28;20242;-78
2023/12/10 02:18:39;;;;;;;0.50;0.50;;;9.10;99.90;;;;;;5065884;28;20430;-78
2023/12/10 02:21:07;;;;;;;2.38;2.28;;;9.10;99.90;;;;;;5067420;28;20682;-79
2023/12/10 02:23:40;;;;;;;5.50;1.23;;;9.10;99.90;;;;;;5069035;28;20249;-80
2023/12/10 02:26:09;;;;;;;2.65;0.95;;;9.10;99.90;;;;;;5067303;28;20910;-80
2023/12/10 02:28:36;;;;;;;3.35;0.75;;;9.10;99.90;;;;;;5065552;28;20900;-80
2023/12/10 02:31:03;;;;;;;4.72;1.55;;;9.10;99.90;;;;;;5067283;28;20610;-78
2023/12/10 02:33:30;;;;;;;27.08;1.85;;;9.10;99.90;;;;;;5069256;28;20245;-80
2023/12/10 02:35:57;;;;;;;3.22;1.13;;;9.10;99.90;;;;;;5069020;28;20281;-80
2023/12/10 02:38:24;;;;;;;1.10;0.70;;;9.10;99.90;;;;;;5065700;28;20195;-78
2023/12/10 02:40:51;;;;;;;2.95;1.05;;;9.10;99.90;;;;;;5065640;28;20289;-79
2023/12/10 02:43:20;;;;;;;2.25;0.82;;;9.10;99.90;;;;;;5065440;28;20574;-79
2023/12/10 02:45:47;;;;;;;0.60;0.60;;;9.10;99.90;;;;;;5065298;28;20238;-79
2023/12/10 02:48:14;;;;;;;2.80;1.13;;;9.10;99.90;;;;;;5068331;28;20195;-78
2023/12/10 02:50:41;;;;;;;6.93;3.83;;;9.10;99.90;;;;;;5068964;28;20261;-79
2023/12/10 02:53:08;;;;;;;2.45;1.60;;;9.30;99.90;;;;;;5066309;28;20297;-78
2023/12/10 02:55:35;;;;;;;6.63;1.27;;;9.30;99.90;;;;;;5065374;28;20191;-80
2023/12/10 02:58:02;;;;;;;2.90;1.15;;;9.30;99.90;;;;;;5065645;28;20465;-79
2023/12/10 03:00:30;;;;;;;20.58;1.63;;;9.20;99.90;;;;;;5068508;28;20682;-80
2023/12/10 03:02:57;;;;;;;0.60;0.40;;;9.20;99.90;;;;;;5068069;28;20607;-79
2023/12/10 03:05:25;;;;;;;0.50;0.40;;;9.10;99.90;;;;;;5064663;28;20557;-79
2023/12/10 03:07:51;;;;;;;0.50;0.40;;;9.10;99.90;;;;;;5065000;28;20282;-78
2023/12/10 03:10:18;;;;;;;7.10;3.37;;;9.00;99.90;;;;;;5067342;28;20278;-78
2023/12/10 03:12:45;;;;;;;4.72;1.25;;;9.00;99.90;;;;;;5068067;28;20488;-79
2023/12/10 03:15:12;;;;;;;8.27;1.65;;;8.90;99.90;;;;;;5065854;28;20744;-79
2023/12/10 03:17:40;;;;;;;9.35;2.97;;;8.80;99.90;;;;;;5065223;28;20630;-79
2023/12/10 03:20:09;;;;;;;0.88;0.77;;;8.70;99.90;;;;;;5066220;28;20282;-78
2023/12/10 03:22:36;;;;;;;3.08;1.33;;;8.60;99.90;;;;;;5068443;28;20272;-78
2023/12/10 03:25:03;;;;;;;2.05;1.80;;;8.50;99.90;;;;;;5067342;28;20222;-79
2023/12/10 03:27:30;;;;;;;4.75;1.23;;;8.40;99.90;;;;;;5065124;28;20255;-80
2023/12/10 03:29:57;;;;;;;0.50;0.40;;;8.30;99.90;;;;;;5064882;28;20279;-80
2023/12/10 03:32:24;;;;;;;0.60;0.60;;;8.20;99.90;;;;;;5067515;28;20262;-79
2023/12/10 03:34:52;;;;;;;1.05;0.95;;;8.10;99.90;;;;;;5067799;28;20233;-79
2023/12/10 03:37:21;;;;;;;0.50;0.40;;;8.00;99.90;;;;;;5064148;28;20274;-79
2023/12/10 03:39:48;;;;;;;7.03;2.20;;;8.00;99.90;;;;;;5063773;28;20630;-80
2023/12/10 03:42:15;;;;;;;3.60;0.60;;;7.90;99.90;;;;;;5066067;28;20196;-79
2023/12/10 03:44:41;;;;;;;6.93;1.85;;;7.90;99.90;;;;;;5067090;28;20285;-78
2023/12/10 03:47:08;;;;;;;3.60;1.38;;;7.80;99.90;;;;;;5067099;28;20288;-79
2023/12/10 03:49:35;;;;;;;1.50;1.40;;;7.80;99.90;;;;;;5066982;28;20248;-80
2023/12/10 03:52:04;;;;;;;10.85;4.32;;;7.80;99.90;;;;;;5065172;28;20284;-79
2023/12/10 03:54:30;;;;;;;6.07;0.80;;;7.70;99.90;;;;;;5062713;28;20646;-80
2023/12/10 03:56:57;;;;;;;3.97;0.63;;;7.70;99.90;;;;;;5062329;28;20639;-80
2023/12/10 03:59:24;;;;;;;1.45;1.35;;;7.70;99.90;;;;;;5062612;28;20273;-80
2023/12/10 04:01:51;;;;;;;4.13;1.98;;;7.60;99.90;;;;;;5062316;28;20286;-80
2023/12/10 04:04:18;;;;;;;3.95;1.65;;;7.60;99.90;;;;;;5064863;28;20301;-80
2023/12/10 04:06:45;;;;;;;1.27;0.80;;;7.60;99.90;;;;;;5065915;28;20246;-79
2023/12/10 04:09:13;;;;;;;3.45;0.93;;;7.60;99.90;;;;;;5064184;28;20285;-80
2023/12/10 04:11:40;;;;;;;5.18;0.90;;;7.50;99.90;;;;;;5065162;28;20278;-80
2023/12/10 04:14:09;;;;;;;3.40;1.50;;;7.50;99.90;;;;;;5062965;28;20253;-80
2023/12/10 04:16:35;;;;;;;24.27;1.98;;;7.50;99.90;;;;;;5064369;28;20182;-79
2023/12/10 04:19:02;;;;;;;0.40;0.40;;;7.50;99.90;;;;;;5065035;28;20238;-79
2023/12/10 04:21:29;;;;;;;6.85;1.30;;;7.50;99.90;;;;;;5062216;28;20187;-82
2023/12/10 04:23:56;;;;;;;5.47;1.05;;;7.50;99.90;;;;;;5062109;28;20249;-80
2023/12/10 04:26:26;;;;;;;16.30;1.50;;;7.50;99.90;;;;;;5064573;28;20283;-81
2023/12/10 04:28:53;;;;;;;2.58;2.38;;;7.50;99.90;;;;;;5065457;28;20196;-80
2023/12/10 04:31:20;;;;;;;6.72;1.15;;;7.40;99.90;;;;;;5062518;28;20289;-80
2023/12/10 04:33:46;;;;;;;0.60;0.55;;;7.40;99.90;;;;;;5061205;28;20250;-79
2023/12/10 04:36:13;;;;;;;9.52;3.03;;;7.40;99.90;;;;;;5070085;28;20277;-79
2023/12/10 04:38:41;;;;;;;0.40;0.40;;;7.40;99.90;;;;;;5061943;28;20270;-79
2023/12/10 04:41:08;;;;;;;1.83;1.80;;;7.40;99.90;;;;;;5062065;28;20227;-79
2023/12/10 04:43:36;;;;;;;6.35;3.33;;;7.40;99.90;;;;;;5065293;28;20656;-80
2023/12/10 04:46:03;;;;;;;9.27;2.53;;;7.40;99.90;;;;;;5065327;28;20277;-79
2023/12/10 04:48:30;;;;;;;3.22;2.15;;;7.40;99.90;;;;;;5061645;28;20191;-80
2023/12/10 04:50:57;;;;;;;0.73;0.70;;;7.40;99.90;;;;;;5061331;28;20635;-80
2023/12/10 04:53:23;;;;;;;0.80;0.80;;;7.40;99.90;;;;;;5064333;28;20257;-80
2023/12/10 04:55:50;;;;;;;2.03;1.27;;;7.40;99.90;;;;;;5065281;28;20215;-80
2023/12/10 04:58:16;;;;;;;0.60;0.60;;;7.40;99.90;;;;;;5063127;28;20447;-79
2023/12/10 05:00:45;;;;;;;5.63;1.02;;;7.40;99.90;;;;;;5061273;28;20286;-79
2023/12/10 05:03:12;;;;;;;3.95;1.75;;;7.40;99.90;;;;;;5062287;28;20298;-80
2023/12/10 05:05:39;;;;;;;4.20;1.27;;;7.50;99.90;;;;;;5064762;28;20253;-79
2023/12/10 05:08:06;;;;;;;5.60;3.58;;;7.50;99.90;;;;;;5064296;28;20614;-79
2023/12/10 05:10:33;;;;;;;0.73;0.73;;;7.50;99.90;;;;;;5065001;28;20195;-79
2023/12/10 05:13:00;;;;;;;1.50;0.60;;;7.50;99.90;;;;;;5070541;28;20242;-80
2023/12/10 05:15:27;;;;;;;0.40;0.40;;;7.50;99.90;;;;;;5063773;28;20226;-80
2023/12/10 05:17:55;;;;;;;6.18;1.85;;;7.50;99.90;;;;;;5063911;28;20286;-81
2023/12/10 05:20:22;;;;;;;0.60;0.60;;;7.50;99.90;;;;;;5065939;28;20439;-79
2023/12/10 05:22:49;;;;;;;8.93;2.17;;;7.50;99.90;;;;;;5066868;28;20273;-80
2023/12/10 05:25:15;;;;;;;3.55;2.45;;;7.50;99.90;;;;;;5066300;28;20642;-79
2023/12/10 05:27:42;;;;;;;1.05;0.52;;;7.50;99.90;;;;;;5065274;28;20226;-80
2023/12/10 05:30:10;;;;;;;3.28;1.30;;;7.50;99.90;;;;;;5066943;28;20198;-80
2023/12/10 05:32:38;;;;;;;0.70;0.70;;;7.50;99.90;;;;;;5072397;28;20214;-81
2023/12/10 05:35:06;;;;;;;4.68;1.55;;;7.50;99.90;;;;;;5070880;28;20281;-80
2023/12/10 05:37:33;;;;;;;1.80;1.02;;;7.50;99.90;;;;;;5070602;28;20224;-80
2023/12/10 05:40:00;;;;;;;5.47;1.48;;;7.50;99.90;;;;;;5069281;28;20254;-80
2023/12/10 05:42:27;;;;;;;2.97;1.13;;;7.50;99.90;;;;;;5065847;28;20282;-81
2023/12/10 05:44:55;;;;;;;8.85;1.98;;;7.50;99.90;;;;;;5064667;28;20574;-79
2023/12/10 05:47:22;;;;;;;3.30;0.80;;;7.50;99.90;;;;;;5066959;28;20210;-80
2023/12/10 05:49:48;;;;;;;6.88;1.65;;;7.50;99.90;;;;;;5067537;28;20198;-79
2023/12/10 05:52:17;;;;;;;0.93;0.63;;;7.50;99.90;;;;;;5066926;28;20221;-80
2023/12/10 05:54:44;;;;;;;0.93;0.93;;;7.60;99.90;;;;;;5064331;28;20809;-80
2023/12/10 05:57:11;;;;;;;0.60;0.50;;;7.60;99.90;;;;;;5072875;28;20263;-79
2023/12/10 05:59:38;;;;;;;0.70;0.68;;;7.60;99.90;;;;;;5064359;28;20210;-80
2023/12/10 06:02:05;;;;;;;2.58;0.60;;;7.60;99.90;;;;;;5064441;28;20265;-80
2023/12/10 06:04:32;;;;;;;35.30;2.58;;;7.60;99.90;;;;;;5067330;28;20288;-79
2023/12/10 06:06:59;;;;;;;0.80;0.80;;;7.70;99.90;;;;;;5067783;28;20257;-80
2023/12/10 06:09:27;;;;;;;0.50;0.40;;;7.70;99.90;;;;;;5065335;28;20230;-80
2023/12/10 06:11:54;;;;;;;27.52;2.08;;;7.80;99.90;;;;;;5063864;28;20237;-80
2023/12/10 06:14:21;;;;;;;0.50;0.43;;;7.90;99.90;;;;;;5065578;28;20219;-80
2023/12/10 06:16:48;;;;;;;0.98;0.63;;;7.90;99.90;;;;;;5070516;28;20223;-80
2023/12/10 06:19:14;;;;;;;1.08;0.60;;;8.00;99.90;;;;;;5064346;28;20683;-79
2023/12/10 06:21:41;;;;;;;0.75;0.47;;;8.00;99.90;;;;;;5066779;28;20196;-79
2023/12/10 06:24:08;;;;;;;13.70;1.45;;;8.00;99.90;;;;;;5067474;28;20238;-80
2023/12/10 06:26:36;;;;;;;4.70;1.95;;;8.10;99.90;;;;;;5064785;28;20709;-79
2023/12/10 06:29:03;;;;;;;0.50;0.40;;;8.10;99.90;;;;;;5063788;28;20237;-80
2023/12/10 06:31:30;;;;;;;1.42;0.70;;;8.20;99.90;;;;;;5076419;28;20305;-81
2023/12/10 06:33:57;;;;;;;0.70;0.60;;;8.30;99.90;;;;;;5071689;28;20249;-82
2023/12/10 06:36:24;;;;;;;2.05;0.85;;;8.40;99.90;;;;;;5073135;28;20218;-82
2023/12/10 06:38:51;;;;;;;5.72;1.30;;;8.40;99.90;;;;;;5074423;28;20198;-82
2023/12/10 06:41:17;;;;;;;0.55;0.55;;;8.50;99.90;;;;;;5074094;28;20221;-82
2023/12/10 06:43:46;;;;;;;5.38;1.58;;;8.60;99.90;;;;;;5076219;28;20242;-82
2023/12/10 06:46:17;;;;;;;7.63;1.88;;;8.60;99.90;;;;;;5082688;28;20218;-82
2023/12/10 06:48:44;;;;;;;0.50;0.40;;;8.70;99.90;;;;;;5078864;28;20222;-82
2023/12/10 06:51:11;;;;;;;0.60;0.60;;;8.80;99.90;;;;;;5086914;28;20191;-80
2023/12/10 06:53:39;;;;;;;8.32;1.85;;;8.70;99.90;;;;;;5085330;28;20214;-82
2023/12/10 06:56:07;;;;;;;0.65;0.63;;;8.80;99.90;;;;;;5083793;28;20195;-80
2023/12/10 06:58:34;;;;;;;0.60;0.50;;;8.80;99.90;;;;;;5062644;28;20290;-80
2023/12/10 07:01:02;;;;;;;1.53;1.37;;;8.80;99.90;;;;;;5061977;28;20238;-80
2023/12/10 07:03:29;;;;;;;0.50;0.40;;;8.80;99.90;;;;;;5063929;28;20528;-81
2023/12/10 07:05:58;;;;;;;0.88;0.68;;;8.80;99.90;;;;;;5065402;28;20239;-80
2023/12/10 07:08:25;;;;;;;13.35;2.95;;;8.80;99.90;;;;;;5066094;28;20190;-80
2023/12/10 07:10:52;;;;;;;3.85;1.50;;;8.80;99.90;;;;;;5066641;28;20226;-81
2023/12/10 07:13:19;;;;;;;22.55;1.50;;;8.90;99.90;;;;;;5070064;28;20245;-81
2023/12/10 07:15:46;;;;;;;11.83;1.73;;;8.90;99.90;;;;;;5067397;28;21068;-82
2023/12/10 07:18:14;;;;;;;11.73;1.60;;;8.90;99.90;;;;;;5075122;28;20527;-82
2023/12/10 07:20:41;;;;;;;3.00;1.00;;;8.90;99.90;;;;;;5070613;28;20436;-80
2023/12/10 07:23:08;;;;;;;1.30;1.17;;;8.90;99.90;;;;;;5069702;28;20237;-82
2023/12/10 07:25:35;;;;;;;0.50;0.50;;;8.90;99.90;;;;;;5067253;28;20440;-81
2023/12/10 07:28:02;;;;;;;0.50;0.40;;;8.90;99.90;;;;;;5065638;28;21042;-82
2023/12/10 07:30:30;;;;;;;4.30;1.40;;;9.00;99.90;;;;;;5069094;28;20446;-80
2023/12/10 07:32:57;;;;;;;6.33;3.87;;;8.90;99.90;;;;;;5070345;28;20218;-82
2023/12/10 07:35:25;;;;;;;1.43;1.33;;;8.90;99.90;;;;;;5069651;28;20447;-82
2023/12/10 07:37:52;;;;;;;1.23;1.15;;;8.90;99.90;;;;;;5070136;28;20519;-82
2023/12/10 07:40:19;;;;;;;0.60;0.50;;;8.90;99.90;;;;;;5070071;28;20225;-79
2023/12/10 07:42:46;;;;;;;1.98;1.30;;;8.90;99.90;;;;;;5062516;28;20249;-82
2023/12/10 07:45:13;;;;;;;3.03;1.00;;;8.90;99.90;;;;;;5070762;28;20278;-79
2023/12/10 07:47:40;;;;;;;2.17;0.90;;;9.00;99.90;;;;;;5069436;28;20309;-82
2023/12/10 07:50:08;;;;;;;1.05;0.90;;;9.00;99.90;;;;;;5069077;28;20475;-82
2023/12/10 07:52:36;;;;;;;8.80;2.57;;;9.00;99.90;;;;;;5066495;28;20260;-81
2023/12/10 07:55:03;;;;;;;2.05;1.85;;;9.00;99.90;;;;;;5071884;28;20445;-82
2023/12/10 07:57:30;;;;;;;6.65;0.98;;;9.00;99.90;;;;;;5067962;28;20189;-81
2023/12/10 07:59:57;;;;;;;6.28;0.93;;;9.00;99.90;;;;;;5070995;28;20577;-81
2023/12/10 08:02:23;;;;;;;0.82;0.82;;;9.00;99.90;;;;;;5069478;28;20230;-82
2023/12/10 08:04:50;;;;;;;3.90;0.93;;;9.00;99.90;;;;;;5069187;28;20229;-81
2023/12/10 08:07:17;;;;;;;0.50;0.40;;;9.00;99.90;;;;;;5076871;28;20563;-79
2023/12/10 08:09:45;;;;;;;8.18;1.55;;;9.00;99.90;;;;;;5065722;28;20196;-82
2023/12/10 08:12:12;;;;;;;0.85;0.85;;;9.00;99.90;;;;;;5072215;28;20252;-82
2023/12/10 08:14:39;;;;;;;3.88;2.28;;;9.00;99.90;;;;;;5068988;28;20210;-82
2023/12/10 08:17:06;;;;;;;0.50;0.40;;;9.10;99.90;;;;;;5071513;28;20219;-82
2023/12/10 08:19:33;;;;;;;0.60;0.50;;;9.10;99.90;;;;;;5066658;28;20215;-80
2023/12/10 08:22:00;;;;;;;0.50;0.40;;;9.10;99.90;;;;;;5072180;28;20484;-82
2023/12/10 08:24:27;;;;;;;0.75;0.68;;;9.10;99.90;;;;;;5065831;28;20257;-82
2023/12/10 08:26:55;;;;;;;0.50;0.40;;;9.00;99.90;;;;;;5069599;28;20637;-82
2023/12/10 08:29:22;;;;;;;1.85;1.00;;;9.10;99.90;;;;;;5069237;28;20225;-82
2023/12/10 08:31:50;;;;;;;0.50;0.50;;;9.10;99.90;;;;;;5074931;28;20230;-79
2023/12/10 08:34:16;;;;;;;2.05;0.80;;;9.10;99.90;;;;;;5070132;28;20340;-81
2023/12/10 08:36:43;;;;;;;1.17;0.50;;;9.10;99.90;;;;;;5066885;28;20230;-82
2023/12/10 08:39:10;;;;;;;7.50;1.40;;;9.00;99.90;;;;;;5067729;28;20273;-81
2023/12/10 08:41:37;;;;;;;1.17;0.67;;;9.00;99.90;;;;;;5066262;28;20186;-81
2023/12/10 08:44:06;;;;;;;0.80;0.80;;;9.00;99.90;;;;;;5064208;28;20456;-81
2023/12/10 08:46:33;;;;;;;0.50;0.40;;;9.00;99.90;;;;;;5065166;28;20480;-80
2023/12/10 08:49:00;;;;;;;1.55;0.93;;;9.00;99.90;;;;;;5067006;28;20191;-81
2023/12/10 08:51:27;;;;;;;0.70;0.47;;;9.00;99.90;;;;;;5067335;28;20278;-81
2023/12/10 08:53:54;;;;;;;1.20;0.90;;;9.00;99.90;;;;;;5064109;28;20488;-81
2023/12/10 08:56:21;;;;;;;0.50;0.47;;;9.00;99.90;;;;;;5063746;28;20524;-81
2023/12/10 08:58:49;;;;;;;3.47;0.80;;;9.00;99.90;;;;;;5066707;28;20462;-81
2023/12/10 09:01:18;;;;;;;4.00;1.27;;;9.00;99.90;;;;;;5067177;28;20437;-82
2023/12/10 09:03:45;;;;;;;1.67;1.13;;;9.00;99.90;;;;;;5064811;28;20245;-81
2023/12/10 09:06:11;;;;;;;0.70;0.50;;;9.00;99.90;;;;;;5064533;28;20234;-80
2023/12/10 09:08:38;;;;;;;0.50;0.40;;;9.00;99.90;;;;;;5065605;28;20274;-81
2023/12/10 09:11:05;;;;;;;0.57;0.50;;;9.00;99.90;;;;;;5068025;28;20247;-81
2023/12/10 09:13:31;;;;;;;0.60;0.60;;;9.00;99.90;;;;;;5067036;28;20249;-81
2023/12/10 09:15:58;;;;;;;0.50;0.50;;;9.00;99.90;;;;;;5063656;28;20232;-81
2023/12/10 09:18:27;;;;;;;7.78;1.60;;;9.00;99.90;;;;;;5072095;28;20570;-82
2023/12/10 09:20:54;;;;;;;0.70;0.70;;;9.00;99.90;;;;;;5067604;28;20218;-81
2023/12/10 09:23:21;;;;;;;0.63;0.63;;;9.00;99.90;;;;;;5067645;28;20214;-81
2023/12/10 09:25:48;;;;;;;1.60;0.80;;;9.00;99.90;;;;;;5064641;28;20879;-81
2023/12/10 09:28:15;;;;;;;4.10;0.95;;;9.00;99.90;;;;;;5070516;28;20298;-82
2023/12/10 09:30:42;;;;;;;1.00;0.98;;;9.00;99.90;;;;;;5067044;28;20237;-81
2023/12/10 09:33:09;;;;;;;5.97;1.70;;;9.00;99.90;;;;;;5067687;28;20232;-81
2023/12/10 09:35:38;;;;;;;0.63;0.60;;;9.00;99.90;;;;;;5066144;28;20609;-80
2023/12/10 09:38:04;;;;;;;0.50;0.50;;;9.00;99.90;;;;;;5063569;28;20223;-80
2023/12/10 09:40:33;;;;;;;4.13;1.45;;;9.00;99.90;;;;;;5067814;28;20218;-80
2023/12/10 09:43:01;;;;;;;1.30;0.90;;;9.00;99.90;;;;;;5080821;28;20207;-80
2023/12/10 09:45:28;;;;;;;3.00;2.80;;;9.00;99.90;;;;;;5080741;28;20488;-80
2023/12/10 09:47:55;;;;;;;1.42;1.30;;;9.10;99.90;;;;;;5077653;28;20219;-80
2023/12/10 09:50:23;;;;;;;15.90;1.77;;;9.10;99.90;;;;;;5076197;28;20188;-77
2023/12/10 09:52:51;;;;;;;2.40;0.70;;;9.10;99.90;;;;;;5079377;28;20755;-79
2023/12/10 09:55:18;;;;;;;0.50;0.40;;;9.10;99.90;;;;;;5082331;28;20441;-79
2023/12/10 09:57:45;;;;;;;6.72;1.05;;;9.10;99.90;;;;;;5085264;28;20436;-79
2023/12/10 10:00:13;;;;;;;4.78;1.27;;;9.10;99.90;;;;;;5076467;28;20223;-79
2023/12/10 10:02:40;;;;;;;6.18;1.17;;;9.20;99.90;;;;;;5085360;28;20222;-79
2023/12/10 10:05:09;;;;;;;0.70;0.70;;;9.20;99.90;;;;;;5076172;28;20226;-79
2023/12/10 10:07:37;;;;;;;13.77;1.55;;;9.20;99.90;;;;;;5084656;28;20634;-79
2023/12/10 10:10:10;;;;;;;4.20;2.05;;;9.20;99.90;;;;;;5076846;28;20195;-79
2023/12/10 10:12:37;;;;;;;2.10;1.37;;;9.10;99.90;;;;;;5085441;28;20573;-81
2023/12/10 10:15:05;;;;;;;0.70;0.70;;;9.10;99.90;;;;;;5066528;28;20888;-80
2023/12/10 10:17:34;;;;;;;0.50;0.40;;;9.10;99.90;;;;;;5067390;28;20487;-81
2023/12/10 10:20:02;;;;;;;3.88;1.25;;;9.10;99.90;;;;;;5067280;28;20441;-81
2023/12/10 10:22:30;;;;;;;2.40;1.23;;;9.10;99.90;;;;;;5066496;28;20218;-80
2023/12/10 10:24:57;;;;;;;10.48;0.75;;;9.10;99.90;;;;;;5070415;28;21064;-81
2023/12/10 10:27:27;;;;;;;1.75;1.08;;;9.10;99.90;;;;;;5070669;28;20305;-81
2023/12/10 10:29:55;;;;;;;8.63;2.88;;;9.10;99.90;;;;;;5067627;28;20197;-81
2023/12/10 10:32:23;;;;;;;0.90;0.75;;;9.10;99.90;;;;;;5066753;28;20187;-80
2023/12/10 10:34:51;;;;;;;0.50;0.50;;;9.10;99.90;;;;;;5068460;28;20246;-81
2023/12/10 10:37:18;;;;;;;2.33;0.83;;;9.10;99.90;;;;;;5069926;28;20216;-76
2023/12/10 10:39:46;;;;;;;1.03;0.50;;;9.20;99.90;;;;;;5069254;28;20936;-80
2023/12/10 10:42:13;;;;;;;3.23;1.07;;;9.20;99.90;;;;;;5083695;28;20441;-80
2023/12/10 10:44:42;;;;;;;4.07;1.70;;;9.20;99.90;;;;;;5080746;28;20445;-80
2023/12/10 10:47:10;;;;;;;1.63;1.53;;;9.20;99.90;;;;;;5067706;28;20529;-81
2023/12/10 10:49:41;;;;;;;6.30;1.00;;;9.20;99.90;;;;;;5066642;28;20445;-79
2023/12/10 10:52:12;;;;;;;1.23;0.52;;;9.20;99.90;;;;;;5069719;28;21019;-81
2023/12/10 10:54:40;;;;;;;1.27;0.77;;;9.30;99.90;;;;;;5069535;28;20294;-81
2023/12/10 10:57:07;;;;;;;0.50;0.50;;;9.30;99.90;;;;;;5070682;28;20876;-81
2023/12/10 10:59:35;;;;;;;2.03;1.00;;;9.30;99.90;;;;;;5070815;28;20433;-80
2023/12/10 11:02:05;;;;;;;3.30;0.87;;;9.40;99.90;;;;;;5061353;28;20437;-80
2023/12/10 11:04:36;;;;;;;0.60;0.40;;;9.40;99.90;;;;;;5069886;28;20591;-81
2023/12/10 11:07:03;;;;;;;2.50;0.90;;;9.50;99.90;;;;;;5062014;28;20368;-80
2023/12/10 11:09:31;;;;;;;2.17;0.60;;;9.60;99.90;;;;;;5068877;28;20498;-81
2023/12/10 11:11:58;;;;;;;0.50;0.40;;;9.70;99.90;;;;;;5070090;28;20820;-80
2023/12/10 11:14:28;;;;;;;7.97;1.90;;;9.90;99.90;;;;;;5069705;28;20543;-80
2023/12/10 11:16:58;;;;;;;0.50;0.50;;;10.00;99.90;;;;;;5069696;28;20199;-80
2023/12/10 11:19:28;;;;;;;0.50;0.40;;;10.00;99.90;;;;;;5071451;28;20434;-80
2023/12/10 11:21:55;;;;;;;26.47;1.00;;;10.00;99.90;;;;;;5068127;28;20438;-81
2023/12/10 11:24:23;;;;;;;0.50;0.40;;;10.10;99.90;;;;;;5068739;28;20491;-81
2023/12/10 11:26:49;;;;;;;2.03;1.83;;;10.10;99.90;;;;;;5069299;28;20441;-80
2023/12/10 11:29:16;;;;;;;1.13;1.03;;;10.00;99.90;;;;;;5069229;28;20472;-80
2023/12/10 11:31:44;;;;;;;1.00;1.00;;;10.10;99.90;;;;;;5069188;28;20433;-80
2023/12/10 11:34:11;;;;;;;4.77;0.97;;;10.10;99.90;;;;;;5070222;28;20452;-81
2023/12/10 11:36:45;;;;;;;4.03;0.50;;;10.00;99.90;;;;;;5069252;28;20500;-81
2023/12/10 11:39:13;;;;;;;2.80;1.43;;;10.00;99.90;;;;;;5069562;28;20449;-81
2023/12/10 11:41:41;;;;;;;0.50;0.40;;;10.00;99.90;;;;;;5069294;28;20429;-80
2023/12/10 11:44:08;;;;;;;0.83;0.70;;;9.90;99.90;;;;;;5060806;28;20871;-81
2023/12/10 11:46:35;;;;;;;1.60;1.50;;;9.90;99.90;;;;;;5069763;28;20463;-80
2023/12/10 11:49:01;;;;;;;0.50;0.40;;;10.00;99.90;;;;;;5066152;28;20605;-80
2023/12/10 11:51:28;;;;;;;1.33;0.83;;;10.30;99.90;;;;;;5065492;28;20473;-80
2023/12/10 11:53:57;;;;;;;0.50;0.40;;;11.10;99.90;;;;;;5066758;28;20980;-80
2023/12/10 11:56:24;;;;;;;3.27;1.53;;;11.50;99.90;;;;;;5071246;28;20917;-80
2023/12/10 11:58:51;;;;;;;19.10;2.90;;;11.50;99.90;;;;;;5066045;28;20517;-80
2023/12/10 12:01:18;;;;;;;0.50;0.40;;;11.10;99.90;;;;;;5072321;28;20496;-80
2023/12/10 12:03:45;;;;;;;1.63;0.90;;;10.80;99.90;;;;;;5065510;28;20476;-80
2023/12/10 12:06:12;;;;;;;2.50;0.60;;;10.60;99.90;;;;;;5072924;28;20466;-80
2023/12/10 12:08:39;;;;;;;17.97;3.87;;;10.60;99.90;;;;;;5063811;28;20555;-81
2023/12/10 12:11:07;;;;;;;0.53;0.53;;;10.50;99.90;;;;;;5064760;28;20437;-81
2023/12/10 12:13:34;;;;;;;6.23;3.10;;;10.60;99.90;;;;;;5065203;28;20496;-80
2023/12/10 12:16:00;;;;;;;1.00;0.60;;;10.50;99.90;;;;;;5067560;28;20473;-80
2023/12/10 12:18:27;;;;;;;2.03;1.93;;;10.60;99.90;;;;;;5068936;28;20482;-80
2023/12/10 12:20:54;;;;;;;0.90;0.90;;;10.70;99.90;;;;;;5067423;28;20483;-80
2023/12/10 12:23:21;;;;;;;1.90;0.90;;;10.70;99.90;;;;;;5064305;28;20517;-80
2023/12/10 12:25:48;;;;;;;3.27;1.00;;;10.60;99.90;;;;;;5065300;28;20469;-80
2023/12/10 12:28:16;;;;;;;7.10;0.77;;;10.50;99.90;;;;;;5068474;28;20574;-80
2023/12/10 12:30:43;;;;;;;3.03;0.93;;;10.40;99.90;;;;;;5060086;28;20805;-81
2023/12/10 12:33:10;;;;;;;4.70;2.23;;;10.40;99.90;;;;;;5064697;28;20489;-80
2023/12/10 12:35:37;;;;;;;0.90;0.60;;;10.40;99.90;;;;;;5064266;28;20461;-80
2023/12/10 12:38:04;;;;;;;2.30;0.80;;;10.40;99.90;;;;;;5065987;28;20480;-81
2023/12/10 12:40:31;;;;;;;1.07;0.97;;;10.40;99.90;;;;;;5067879;28;20441;-81
2023/12/10 12:42:58;;;;;;;0.70;0.70;;;10.40;99.90;;;;;;5066064;28;20484;-80
2023/12/10 12:45:26;;;;;;;2.67;1.73;;;10.40;99.90;;;;;;5069555;28;20469;-80
2023/12/10 12:47:53;;;;;;;1.73;1.17;;;10.40;99.90;;;;;;5066351;28;20555;-80
2023/12/10 12:50:20;;;;;;;0.50;0.40;;;10.30;99.90;;;;;;5063775;28;20453;-80
2023/12/10 12:52:47;;;;;;;2.10;0.60;;;10.30;99.90;;;;;;5072429;28;20488;-79
2023/12/10 12:55:15;;;;;;;2.50;1.37;;;10.30;99.90;;;;;;5074726;28;20431;-78